To NAV CANADA Home Page Login to a new session Search on AWWS site Feedback and Comments Disclaimer Vers la page française équivalente Tips FAQ What's new on the site To the Forecasts and Observations / NOTAM section To "File a Flight Plan" website Publications and other links Update of the User's profile FIC Telephone Numbers My Weather Data Folder Route Weather Data Regional Weather Data Local Weather Data To the Forecasts and Observations / NOTAM section
Request Generated 10/22/2017 at 00:53:24 UTC . Weather information available at that time is displayed.

METAR/TAF

TORONTO/LESTER B. PEARSON INTL/ON    

METAR CYYZ 220000Z 13005KT 15SM BKN260 16/12 A3022 RMK CI6 SLP236=
METAR CYYZ 212300Z 14006KT 15SM BKN250 16/12 A3022 RMK CI7 SLP237
DENSITY ALT 600FT=
METAR CYYZ 212200Z 13005KT 15SM FEW170 BKN240 18/12 A3021 RMK AC2CS5
SLP235 DENSITY ALT 700FT=

TAF CYYZ 212338Z 2200/2306 15005KT P6SM FEW150 BKN240
BECMG 2205/2207 SCT250
FM221500 18012G22KT P6SM SCT240
FM230200 19012KT P6SM BKN240
RMK NXT FCST BY 220300Z=

KITCHENER/WATERLOO/ON    (show WxCam)

METAR CYKF 220000Z AUTO 17004KT 9SM BKN220 BKN240 16/10 A3023 RMK
SLP242=
METAR CYKF 212300Z AUTO 14006KT 9SM FEW240 14/10 A3022 RMK SLP239=
METAR CYKF 212200Z AUTO 18004KT 9SM SCT230 19/11 A3023 RMK SLP241
DENSITY ALT 1300FT=

TAF CYKF 211938Z 2120/2208 20010KT P6SM BKN240
BECMG 2122/2124 17008KT
FM220600 18005KT P6SM SCT240 PROB30 2206/2208 3/4SM BR
RMK FCST BASED ON AUTO OBS. NXT FCST BY 220200Z=

BORDEN/ON    

METAR CYBN 220000Z AUTO 15006KT 9SM CLR 16/12 A3021 RMK SLP233=
METAR CYBN 212300Z AUTO 14003KT 9SM CLR 17/12 A3020 RMK SLP230=
METAR CYBN 212200Z AUTO 16004KT 9SM CLR 19/12 A3019 RMK SLP227=

*** REMARK        : Forecast period has ended; this was the last TAF issued
*** REMARQUE : La période de prévision est échue; ceci était le dernier TAF qui a été émis
TAF AMD CYBN 202201Z 2018/2106 FCST CNCLD DUE END OF FLYING PROGRAM
RMK NXT FCST WILL BE ISSUED AT 231015Z=

MUSKOKA/ON    (show WxCam)

METAR CYQA 220000Z AUTO 15005KT 9SM BKN230 15/12 A3021 RMK SLP238=
METAR CYQA 212300Z AUTO 15004KT 9SM BKN250 16/12 A3020 RMK SLP234=
METAR CYQA 212200Z AUTO 14005KT 9SM BKN240 18/12 A3020 RMK SLP233
DENSITY ALT 1100FT=

TAF CYQA 211938Z 2120/2202 16008KT P6SM SCT200
RMK FCST BASED ON AUTO OBS. NXT FCST WILL BE ISSUED AT 221145Z=

HAMILTON/ON    

METAR CYHM 220000Z 18005KT 15SM BKN240 14/09 A3023 RMK CI7 SLP243=
METAR CYHM 212300Z 19005KT 15SM FEW170 BKN250 16/08 A3023 RMK AC2CI5
SLP240=
METAR CYHM 212200Z 20005KT 15SM FEW140 BKN240 17/09 A3023 RMK AC1CI6
SLP242 DENSITY ALT 900FT=

TAF CYHM 212338Z 2200/2224 19005KT P6SM FEW150 BKN240
BECMG 2200/2202 16006KT
FM220800 20007KT P6SM SCT220 PROB30 2208/2214 3/4SM BR
FM221400 20012G22KT P6SM SCT240
RMK NXT FCST BY 220600Z=

WIARTON/ON    

METAR CYVV 220000Z 16009KT 15SM SCT150 17/12 A3016 RMK AS3 SLP217
DENSITY ALT 900FT=
METAR CYVV 212300Z 16007KT 15SM FEW100 OVC150 18/12 A3016 RMK AC1AS7
SLP216 DENSITY ALT 1100FT=
METAR CYVV 212200Z 16007KT 15SM BKN100 OVC250 19/12 A3015 RMK AS5CI3
SLP213 DENSITY ALT 1200FT=

*** REMARK        : Forecast period has ended; this was the last TAF issued
*** REMARQUE : La période de prévision est échue; ceci était le dernier TAF qui a été émis
TAF CYVV 211938Z 2120/2123 21010G20KT P6SM BKN240
BECMG 2121/2123 17010KT
RMK NXT FCST WILL BE ISSUED AT 221045Z=

SARNIA (CHRIS HADFIELD)/ON    (show WxCam)

METAR CYZR 220000Z AUTO 20005KT 9SM BKN190 OVC210 18/12 A3019 RMK
SLP225 DENSITY ALT 700FT=
METAR CYZR 212300Z AUTO 16009KT 9SM BKN210 19/12 A3017 RMK SLP219
DENSITY ALT 800FT=
METAR CYZR 212200Z AUTO 16010KT 9SM BKN220 BKN240 20/13 A3016 RMK
SLP214 DENSITY ALT 1000FT=

TAF CYZR 211938Z 2120/2202 18010G20KT P6SM SCT200
BECMG 2123/2201 17010KT
RMK FCST BASED ON AUTO OBS. NXT FCST WILL BE ISSUED AT 220745Z=

LONDON/ON    

METAR CYXU 220000Z 13006KT 15SM OVC200 15/10 A3022 RMK CI8 SLP237=
METAR CYXU 212300Z 16007KT 15SM BKN230 16/11 A3022 RMK CI7 SLP238
DENSITY ALT 1000FT=
METAR CYXU 212200Z 15006KT 15SM SCT180 BKN230 18/12 A3021 RMK AC4CI3
SLP234 DENSITY ALT 1200FT=

TAF CYXU 212338Z 2200/2224 16007KT P6SM FEW150 BKN240
FM220600 18005KT P6SM SCT240 PROB30 2206/2213 3/4SM BR
FM221400 18010G20KT P6SM SCT240
RMK NXT FCST BY 220600Z=

PETERBOROUGH/ON    (show WxCam)

METAR CYPQ 220000Z AUTO VRB02KT 9SM BKN230 BKN250 11/10 A3024 RMK
SLP247=
METAR CYPQ 212300Z AUTO 17003KT 9SM SCT240 12/11 A3024 RMK SLP246=
METAR CYPQ 212200Z AUTO 14002KT 9SM SCT230 16/12 A3023 RMK SLP244=

TAF CYPQ 211938Z 2120/2202 18008KT P6SM BKN240
BECMG 2200/2202 VRB03KT
RMK FCST BASED ON AUTO OBS. NXT FCST WILL BE ISSUED AT 220945Z=
Your time UTC time
Weather data provided by Environment Canada and NAV CANADA